Time;durP1;ratioP1;P1;durP2;ratioP2;P2;SDS_P1;SDS_P2;PMS_P1;PMS_P2;Temp;Humidity;BMP_temperature;BMP_pressure;BME280_temperature;BME280_humidity;BME280_pressure;Samples;Min_cycle;Max_cycle;Signal;HPM_P1;HPM_P2
2021/12/07 04:33:02;;;;;;;;;;;;;;;-0.61;43.71;91942.31;6330470;22;19935;-79
2021/12/07 04:35:27;;;;;;;;;;;;;;;-0.69;43.66;91938.34;6374096;22;20332;-79
2021/12/07 04:37:53;;;;;;;;;;;;;;;-0.74;44.04;91940.84;6405456;22;19913;-79
2021/12/07 04:40:21;;;;;;;;;;;;;;;-0.79;43.65;91944.06;6401807;22;19909;-79
2021/12/07 04:42:49;;;;;;;;;;;;;;;-0.87;43.77;91942.66;6348501;22;19914;-80
2021/12/07 04:57:38;;;;;;;;;;;;;;;-0.99;43.46;91947.06;6403076;22;19910;-80
2021/12/07 04:59:05;;;;;;;;;;;;;;;-1.02;42.46;91959.59;6402604;22;20344;-80
2021/12/07 05:01:32;;;;;;;;;;;;;;;-1.06;43.89;91965.19;6402693;22;19924;-80
2021/12/07 05:04:05;;;;;;;;;;;;;;;-1.10;43.46;91960.75;6401630;22;19910;-80
2021/12/07 05:06:33;;;;;;;;;;;;;;;-1.12;44.51;91960.97;6402499;22;19910;-78
2021/12/07 05:09:07;;;;;;;;;;;;;;;-1.18;44.63;91961.84;6375942;22;20271;-79
2021/12/07 05:11:49;;;;;;;;;;;;;;;-1.23;44.96;91966.13;6402552;22;19905;-79
2021/12/07 05:14:20;;;;;;;;;;;;;;;-1.27;45.49;91964.00;6402033;22;19914;-80
2021/12/07 05:24:53;;;;;;;;;;;;;;;-1.31;45.39;91965.44;6371268;22;19910;-77
2021/12/07 05:38:21;;;;;;;;;;;;;;;-0.85;43.37;92001.56;6380914;22;20336;-78
2021/12/07 05:40:46;;;;;;;;;;;;;;;-0.59;42.99;92005.34;6403087;22;19921;-80
2021/12/07 05:43:12;;;;;;;;;;;;;;;-0.49;42.97;92005.56;6401695;22;19914;-77
2021/12/07 05:45:38;;;;;;;;;;;;;;;-0.39;44.45;92004.16;6347485;22;19905;-77
2021/12/07 05:48:05;;;;;;;;;;;;;;;-0.41;44.67;92001.81;6403211;22;19905;-77
2021/12/07 05:50:33;;;;;;;;;;;;;;;-0.42;45.00;92010.56;6375782;22;19909;-78
2021/12/07 05:52:59;;;;;;;;;;;;;;;-0.43;45.04;92011.56;6403118;22;20292;-77
2021/12/07 05:55:25;;;;;;;;;;;;;;;-0.42;44.38;92010.56;6403910;22;20378;-77
2021/12/07 05:57:51;;;;;;;;;;;;;;;-0.46;45.50;92002.50;6351851;22;19906;-78
2021/12/07 06:00:24;;;;;;;;;;;;;;;-0.48;45.43;92008.91;6379465;22;19926;-77
2021/12/07 06:02:51;;;;;;;;;;;;;;;-0.49;45.02;92007.34;6408311;22;19910;-78
2021/12/07 06:05:16;;;;;;;;;;;;;;;-0.51;46.41;92007.56;6380556;22;19905;-80
2021/12/07 06:07:42;;;;;;;;;;;;;;;-0.56;46.58;92011.81;6352767;22;20336;-78
2021/12/07 06:10:07;;;;;;;;;;;;;;;-0.63;47.21;91999.91;6378864;22;19909;-79
2021/12/07 06:12:34;;;;;;;;;;;;;;;-0.73;47.93;92004.84;6375532;22;19944;-78
2021/12/07 06:14:59;;;;;;;;;;;;;;;-0.79;48.34;92003.19;6352141;22;19906;-78
2021/12/07 06:17:45;;;;;;;;;;;;;;;-0.83;47.48;92009.81;6381207;22;19910;-79
2021/12/07 06:20:14;;;;;;;;;;;;;;;-0.88;47.63;91999.41;6406479;22;20071;-79
2021/12/07 06:22:40;;;;;;;;;;;;;;;-0.86;48.24;91999.97;6372893;22;19980;-77
2021/12/07 06:25:06;;;;;;;;;;;;;;;-0.93;48.21;92012.94;6372955;22;19959;-77
2021/12/07 06:27:31;;;;;;;;;;;;;;;-0.98;47.69;92012.84;6373360;22;20351;-77
2021/12/07 06:29:57;;;;;;;;;;;;;;;-1.02;47.19;92013.53;6345762;22;19909;-81
2021/12/07 06:32:23;;;;;;;;;;;;;;;-1.07;47.39;92007.28;6400920;22;19906;-77
2021/12/07 06:34:49;;;;;;;;;;;;;;;-1.09;47.13;92014.44;6346560;22;19917;-77
2021/12/07 06:37:14;;;;;;;;;;;;;;;-1.10;47.46;92010.31;6401456;22;19913;-77
2021/12/07 06:39:40;;;;;;;;;;;;;;;-1.03;48.89;92022.28;6400367;22;19985;-77
2021/12/07 06:42:05;;;;;;;;;;;;;;;-1.13;48.99;92028.72;6372765;22;19998;-77
2021/12/07 06:44:31;;;;;;;;;;;;;;;-1.18;49.03;92027.88;6372760;22;19906;-77
2021/12/07 06:46:56;;;;;;;;;;;;;;;-1.21;48.20;92023.97;6401068;22;19909;-77
2021/12/07 06:49:22;;;;;;;;;;;;;;;-1.16;47.91;92025.84;6346100;22;19906;-77
2021/12/07 06:51:48;;;;;;;;;;;;;;;-1.17;48.96;92029.41;6320522;22;19909;-77
2021/12/07 06:54:13;;;;;;;;;;;;;;;-1.16;49.07;92036.91;6372436;22;20344;-77
2021/12/07 06:56:39;;;;;;;;;;;;;;;-1.19;48.76;92036.56;6400928;22;19912;-77
2021/12/07 06:59:04;;;;;;;;;;;;;;;-1.23;49.69;92031.09;6372784;22;19901;-77
2021/12/07 07:01:30;;;;;;;;;;;;;;;-1.26;50.08;92034.13;6372149;22;19986;-77
2021/12/07 07:03:55;;;;;;;;;;;;;;;-1.30;49.99;92038.94;6372723;22;19909;-77
2021/12/07 07:06:21;;;;;;;;;;;;;;;-1.26;50.13;92046.97;6346612;22;19913;-77
2021/12/07 07:08:46;;;;;;;;;;;;;;;-1.21;50.23;92047.06;6400484;22;20333;-77
2021/12/07 07:11:12;;;;;;;;;;;;;;;-1.20;51.21;92056.34;6403306;22;19954;-77
2021/12/07 07:13:38;;;;;;;;;;;;;;;-1.22;49.90;92063.47;6374076;22;19906;-77
2021/12/07 07:16:03;;;;;;;;;;;;;;;-0.63;48.10;92064.19;6372938;22;19906;-77
2021/12/07 07:18:29;;;;;;;;;;;;;;;2.04;42.40;92060.25;6400921;22;19988;-77
2021/12/07 07:20:55;;;;;;;;;;;;;;;4.41;38.57;92047.47;6373138;22;19902;-77
2021/12/07 07:23:22;;;;;;;;;;;;;;;6.28;34.40;92043.84;6401226;22;19936;-78
2021/12/07 07:25:47;;;;;;;;;;;;;;;7.77;31.33;92037.28;6401776;22;20332;-78
2021/12/07 07:28:13;;;;;;;;;;;;;;;8.99;29.98;92023.59;6402698;22;19906;-78
2021/12/07 07:30:38;;;;;;;;;;;;;;;10.24;30.46;92029.56;6401950;22;19909;-78
2021/12/07 07:33:04;;;;;;;;;;;;;;;11.20;28.73;92041.53;6374254;22;19913;-77
2021/12/07 07:35:30;;;;;;;;;;;;;;;11.59;27.87;92032.91;6373466;22;20352;-75
2021/12/07 07:37:55;;;;;;;;;;;;;;;12.64;26.98;92026.03;6373637;22;19905;-75
2021/12/07 07:40:22;;;;;;;;;;;;;;;13.68;25.69;92019.03;6347592;22;19906;-75
2021/12/07 07:42:48;;;;;;;;;;;;;;;14.81;23.33;92021.00;6373970;22;19974;-78
2021/12/07 07:45:37;;;;;;;;;;;;;;;14.36;23.33;92014.50;6390387;22;19910;-77
2021/12/07 07:48:03;;;;;;;;;;;;;;;15.76;22.51;92043.06;6402856;22;19909;-77
2021/12/07 07:50:28;;;;;;;;;;;;;;;15.94;20.84;92033.06;6402345;22;19913;-78
2021/12/07 07:52:54;;;;;;;;;;;;;;;16.60;20.60;92037.28;6374769;22;19910;-77
2021/12/07 07:55:19;;;;;;;;;;;;;;;17.62;20.16;92037.00;6347906;22;19964;-77
2021/12/07 07:57:45;;;;;;;;;;;;;;;18.18;19.73;92030.03;6373374;22;19925;-76
2021/12/07 08:00:12;;;;;;;;;;;;;;;19.10;19.16;92028.59;6400682;22;19910;-76
2021/12/07 08:02:40;;;;;;;;;;;;;;;19.41;18.74;92028.75;6373608;22;19920;-77
2021/12/07 08:05:06;;;;;;;;;;;;;;;20.01;17.69;92029.06;6346847;22;19913;-77
2021/12/07 08:07:31;;;;;;;;;;;;;;;19.17;17.58;92030.63;6373065;22;19912;-77
2021/12/07 08:09:56;;;;;;;;;;;;;;;19.82;16.97;92031.78;6400898;22;19918;-77
2021/12/07 08:12:22;;;;;;;;;;;;;;;19.87;16.80;92028.84;6372733;22;20368;-77
2021/12/07 08:14:47;;;;;;;;;;;;;;;20.39;16.50;92038.00;6346828;22;19916;-77
2021/12/07 08:17:13;;;;;;;;;;;;;;;19.48;16.32;92039.53;6401301;22;19905;-77
2021/12/07 08:19:38;;;;;;;;;;;;;;;20.24;16.50;92047.66;6400762;22;20007;-77
2021/12/07 08:22:04;;;;;;;;;;;;;;;20.60;15.90;92050.84;6346472;22;19910;-77
2021/12/07 08:24:32;;;;;;;;;;;;;;;20.34;15.61;92046.28;6347473;22;19909;-77
2021/12/07 08:26:58;;;;;;;;;;;;;;;20.27;15.40;92040.84;6372909;22;19937;-77
2021/12/07 08:29:24;;;;;;;;;;;;;;;21.33;15.08;92050.63;6401075;22;19927;-77
2021/12/07 08:31:49;;;;;;;;;;;;;;;21.30;14.77;92049.47;6401129;22;20244;-76
2021/12/07 08:34:15;;;;;;;;;;;;;;;22.07;14.80;92060.53;6400653;22;20337;-77
2021/12/07 08:36:40;;;;;;;;;;;;;;;21.81;14.51;92053.44;6346811;22;19980;-77
2021/12/07 08:39:06;;;;;;;;;;;;;;;21.65;14.92;92050.25;6372967;22;20352;-76
2021/12/07 08:41:32;;;;;;;;;;;;;;;22.07;14.14;92049.13;6372411;22;19906;-77
2021/12/07 08:43:57;;;;;;;;;;;;;;;23.02;13.72;92050.19;6400701;22;19910;-77
2021/12/07 08:46:23;;;;;;;;;;;;;;;22.08;14.35;92054.06;6401200;22;19992;-77
2021/12/07 08:48:48;;;;;;;;;;;;;;;22.01;14.66;92057.44;6401163;22;19905;-77
2021/12/07 08:51:15;;;;;;;;;;;;;;;20.79;16.20;92057.97;6401191;22;19931;-76
2021/12/07 08:53:50;;;;;;;;;;;;;;;18.84;17.89;92066.31;6372959;22;19902;-77
2021/12/07 09:01:44;;;;;;;;;;;;;;;15.56;22.43;92065.75;6372800;22;19918;-77
2021/12/07 09:04:10;;;;;;;;;;;;;;;16.67;21.30;92073.72;6401118;22;20336;-77
2021/12/07 09:06:37;;;;;;;;;;;;;;;18.01;19.27;92084.09;6401047;22;19965;-77
2021/12/07 09:09:04;;;;;;;;;;;;;;;19.16;18.68;92090.06;6400967;22;19905;-77
2021/12/07 09:11:29;;;;;;;;;;;;;;;19.57;17.64;92095.81;6400829;22;19931;-77
2021/12/07 09:13:55;;;;;;;;;;;;;;;19.55;17.90;92087.44;6402324;22;19906;-76
2021/12/07 09:16:21;;;;;;;;;;;;;;;19.37;18.46;92096.94;6402938;22;20272;-77
2021/12/07 09:18:47;;;;;;;;;;;;;;;18.62;18.87;92096.09;6402806;22;20332;-76
2021/12/07 09:21:13;;;;;;;;;;;;;;;15.92;21.19;92105.72;6374779;22;19906;-77
2021/12/07 09:23:39;;;;;;;;;;;;;;;13.77;23.90;92106.59;6402692;22;19906;-77
2021/12/07 09:26:05;;;;;;;;;;;;;;;13.52;24.62;92102.94;6374592;22;19910;-76
2021/12/07 09:28:31;;;;;;;;;;;;;;;13.16;25.53;92106.69;6402487;22;19913;-76
2021/12/07 09:30:56;;;;;;;;;;;;;;;13.24;25.55;92107.75;6374288;22;20252;-76
2021/12/07 09:33:23;;;;;;;;;;;;;;;13.73;25.38;92113.56;6402078;22;19921;-76
2021/12/07 09:35:49;;;;;;;;;;;;;;;13.63;25.51;92113.91;6402165;22;19906;-76
2021/12/07 09:38:15;;;;;;;;;;;;;;;14.06;25.35;92110.34;6402480;22;20365;-77
2021/12/07 09:40:42;;;;;;;;;;;;;;;13.69;25.28;92107.38;6402309;22;19986;-77
2021/12/07 09:43:08;;;;;;;;;;;;;;;13.44;25.95;92104.50;6402234;22;19914;-76
2021/12/07 09:45:34;;;;;;;;;;;;;;;12.41;26.56;92100.78;6374127;22;19951;-77
2021/12/07 09:48:00;;;;;;;;;;;;;;;11.35;28.56;92117.13;6402330;22;19906;-78
2021/12/07 09:50:27;;;;;;;;;;;;;;;11.70;28.17;92109.44;6402426;22;19906;-76
2021/12/07 09:52:52;;;;;;;;;;;;;;;10.31;30.44;92106.63;6402302;22;19977;-76
2021/12/07 09:55:18;;;;;;;;;;;;;;;10.81;30.82;92127.53;6401941;22;20309;-77
2021/12/07 09:57:44;;;;;;;;;;;;;;;9.11;32.51;92133.56;6402300;22;20254;-77
2021/12/07 10:00:11;;;;;;;;;;;;;;;9.00;33.52;92126.94;6403648;22;19902;-76
2021/12/07 10:02:39;;;;;;;;;;;;;;;8.36;34.83;92127.28;6403113;22;19916;-77
2021/12/07 10:05:05;;;;;;;;;;;;;;;8.74;34.21;92128.09;6402883;22;19914;-77
2021/12/07 10:07:31;;;;;;;;;;;;;;;8.10;34.95;92126.81;6402555;22;20235;-76
2021/12/07 10:09:56;;;;;;;;;;;;;;;8.07;35.57;92124.75;6402153;22;20337;-76
2021/12/07 10:12:22;;;;;;;;;;;;;;;9.24;33.26;92119.75;6374394;22;20248;-77
2021/12/07 10:14:48;;;;;;;;;;;;;;;8.99;33.83;92128.00;6374797;22;19922;-77
2021/12/07 10:17:19;;;;;;;;;;;;;;;9.94;33.76;92118.03;6374640;22;20349;-77
2021/12/07 10:19:45;;;;;;;;;;;;;;;8.81;33.66;92114.69;6402841;22;20316;-77
2021/12/07 10:22:15;;;;;;;;;;;;;;;8.69;35.21;92116.94;6347969;22;19932;-76
2021/12/07 10:24:54;;;;;;;;;;;;;;;8.07;35.08;92112.50;6373049;22;19906;-76
2021/12/07 10:27:40;;;;;;;;;;;;;;;8.12;35.19;92107.22;6401876;22;19906;-77
2021/12/07 10:30:07;;;;;;;;;;;;;;;8.44;35.14;92108.41;6401733;22;20030;-76
2021/12/07 10:32:33;;;;;;;;;;;;;;;7.96;34.35;92111.06;6401520;22;19909;-77
2021/12/07 10:34:59;;;;;;;;;;;;;;;8.62;34.81;92113.91;6401714;22;19954;-76
2021/12/07 10:37:24;;;;;;;;;;;;;;;7.02;36.26;92114.06;6401907;22;19906;-76
2021/12/07 10:39:52;;;;;;;;;;;;;;;7.74;36.37;92114.16;6401543;22;20248;-76
2021/12/07 10:42:17;;;;;;;;;;;;;;;8.11;36.03;92108.28;6401247;22;19966;-76
2021/12/07 10:44:43;;;;;;;;;;;;;;;8.44;35.52;92110.25;6401685;22;19906;-76
2021/12/07 10:47:09;;;;;;;;;;;;;;;8.12;36.62;92117.63;6401582;22;19917;-77
2021/12/07 10:49:41;;;;;;;;;;;;;;;8.32;36.15;92110.63;6347129;22;20024;-76
2021/12/07 10:52:09;;;;;;;;;;;;;;;8.13;34.84;92114.00;6373692;22;20128;-76
2021/12/07 10:54:37;;;;;;;;;;;;;;;9.05;34.52;92111.97;6401758;22;19902;-76
2021/12/07 10:57:04;;;;;;;;;;;;;;;8.63;34.87;92107.66;6373536;22;20407;-77
2021/12/07 10:59:31;;;;;;;;;;;;;;;8.54;34.61;92107.50;6401795;22;19902;-76
2021/12/07 11:01:56;;;;;;;;;;;;;;;8.86;34.27;92108.63;6401531;22;19917;-76
2021/12/07 11:04:28;;;;;;;;;;;;;;;9.35;33.62;92102.09;6373262;22;19902;-77
2021/12/07 11:07:04;;;;;;;;;;;;;;;9.47;30.92;92099.00;6373992;22;19929;-77
2021/12/07 11:09:30;;;;;;;;;;;;;;;10.01;34.36;92100.09;6401651;22;19905;-77
2021/12/07 11:12:08;;;;;;;;;;;;;;;8.65;31.32;92098.47;6402623;22;19913;-76
2021/12/07 11:14:47;;;;;;;;;;;;;;;8.79;32.49;92097.75;6347334;22;20222;-76
2021/12/07 11:17:13;;;;;;;;;;;;;;;9.18;31.26;92090.34;6373446;22;19954;-77
2021/12/07 11:19:38;;;;;;;;;;;;;;;8.34;34.12;92085.81;6347106;22;19910;-77
2021/12/07 11:22:03;;;;;;;;;;;;;;;8.17;32.47;92084.75;6372430;22;19920;-75
2021/12/07 11:24:40;;;;;;;;;;;;;;;7.76;32.77;92082.63;6402109;22;20304;-74
2021/12/07 11:30:17;;;;;;;;;;;;;;;8.08;31.77;92080.19;6374048;22;19912;-75
2021/12/07 11:32:55;;;;;;;;;;;;;;;7.96;31.32;92084.22;6341372;22;19909;-75
2021/12/07 11:35:26;;;;;;;;;;;;;;;7.67;32.55;92080.63;6373029;22;19938;-76
2021/12/07 11:41:14;;;;;;;;;;;;;;;8.12;31.34;92081.13;6402695;22;19906;-76
2021/12/07 11:43:50;;;;;;;;;;;;;;;7.55;31.18;92071.66;6402427;22;19996;-75
2021/12/07 11:46:18;;;;;;;;;;;;;;;7.84;30.51;92069.00;6375333;22;19913;-76
2021/12/07 11:48:44;;;;;;;;;;;;;;;7.72;29.90;92070.16;6373975;22;19924;-75
2021/12/07 11:51:10;;;;;;;;;;;;;;;7.69;30.30;92057.69;6373938;22;19941;-76
2021/12/07 11:53:35;;;;;;;;;;;;;;;8.33;30.48;92054.78;6374873;22;20023;-76
2021/12/07 11:56:01;;;;;;;;;;;;;;;8.05;29.69;92049.44;6400873;22;19934;-76
2021/12/07 11:58:27;;;;;;;;;;;;;;;8.12;29.94;92060.28;6373117;22;19917;-76
2021/12/07 12:00:55;;;;;;;;;;;;;;;8.39;28.31;92053.69;6401627;22;19917;-76
2021/12/07 12:03:22;;;;;;;;;;;;;;;8.63;29.66;92064.06;6400585;22;19905;-76
2021/12/07 12:05:49;;;;;;;;;;;;;;;8.92;29.16;92061.25;6347021;22;19910;-76
2021/12/07 12:08:18;;;;;;;;;;;;;;;9.33;28.19;92052.75;6373170;22;20002;-76
2021/12/07 12:10:47;;;;;;;;;;;;;;;10.01;28.02;92055.66;6374364;22;20340;-77
2021/12/07 12:13:21;;;;;;;;;;;;;;;10.58;26.77;92053.44;6373808;22;20241;-76
2021/12/07 12:16:01;;;;;;;;;;;;;;;10.99;25.25;92046.50;6401685;22;20333;-76
2021/12/07 12:18:35;;;;;;;;;;;;;;;11.12;25.54;92043.00;6373400;22;19906;-76
2021/12/07 12:21:15;;;;;;;;;;;;;;;10.89;24.86;92034.41;6401355;22;19913;-76
2021/12/07 12:23:59;;;;;;;;;;;;;;;11.00;25.07;92030.47;6401702;22;19945;-77
2021/12/07 12:26:26;;;;;;;;;;;;;;;10.95;24.80;92022.72;6401300;22;20347;-76
2021/12/07 12:28:53;;;;;;;;;;;;;;;10.31;24.94;92014.25;6373558;22;19978;-76
2021/12/07 12:31:19;;;;;;;;;;;;;;;10.33;25.61;92012.88;6372945;22;19933;-76
2021/12/07 12:33:49;;;;;;;;;;;;;;;9.92;26.10;92002.50;6372914;22;19914;-76
2021/12/07 12:36:16;;;;;;;;;;;;;;;9.76;26.29;92000.19;6401504;22;19937;-77
2021/12/07 12:38:48;;;;;;;;;;;;;;;9.72;27.03;91996.63;6347346;22;19905;-76
2021/12/07 12:41:15;;;;;;;;;;;;;;;9.63;26.75;91992.38;6401912;22;19910;-77
2021/12/07 12:44:07;;;;;;;;;;;;;;;9.79;26.63;91989.19;6347438;22;19905;-77
2021/12/07 12:46:34;;;;;;;;;;;;;;;9.41;27.58;91985.22;6394365;22;19905;-76
2021/12/07 12:49:05;;;;;;;;;;;;;;;9.02;26.44;91982.00;6347668;22;19906;-76
2021/12/07 12:51:32;;;;;;;;;;;;;;;8.40;27.69;91981.41;6402796;22;19905;-76
2021/12/07 12:53:57;;;;;;;;;;;;;;;8.25;27.69;91987.66;6373224;22;19910;-76
2021/12/07 12:59:28;;;;;;;;;;;;;;;8.19;27.88;91973.91;6396860;22;19937;-77
2021/12/07 13:01:56;;;;;;;;;;;;;;;8.24;27.60;91967.81;6375295;22;19910;-77
2021/12/07 13:07:32;;;;;;;;;;;;;;;8.91;26.80;91967.56;6375219;22;20305;-77
2021/12/07 13:09:59;;;;;;;;;;;;;;;8.96;26.45;91976.09;6375865;22;19910;-77
2021/12/07 13:12:45;;;;;;;;;;;;;;;8.62;27.09;91970.41;6403573;22;19906;-77
2021/12/07 13:15:12;;;;;;;;;;;;;;;8.04;27.25;91966.31;6403600;22;20324;-77
2021/12/07 13:17:41;;;;;;;;;;;;;;;8.45;26.48;91960.53;6403378;22;19906;-77
2021/12/07 13:20:27;;;;;;;;;;;;;;;8.09;28.12;91964.41;6403391;22;19905;-77
2021/12/07 13:23:13;;;;;;;;;;;;;;;8.63;28.00;91969.38;6403555;22;19909;-77
2021/12/07 13:25:40;;;;;;;;;;;;;;;9.40;26.96;91973.22;6349058;22;19905;-78
2021/12/07 13:31:42;;;;;;;;;;;;;;;8.00;27.43;91968.69;6403223;22;19913;-77
2021/12/07 13:34:08;;;;;;;;;;;;;;;7.57;28.39;91955.72;6369555;22;19935;-77
2021/12/07 13:36:47;;;;;;;;;;;;;;;7.57;27.65;91965.38;6371968;22;19906;-77
2021/12/07 13:39:12;;;;;;;;;;;;;;;7.33;29.95;91960.19;6371605;22;19909;-77
2021/12/07 13:45:17;;;;;;;;;;;;;;;8.78;28.68;91937.00;6371716;22;19913;-77
2021/12/07 13:50:53;;;;;;;;;;;;;;;7.92;28.77;91940.66;6369740;22;19906;-77
2021/12/07 13:53:18;;;;;;;;;;;;;;;7.89;30.72;91943.84;6369314;22;20023;-77
2021/12/07 13:55:46;;;;;;;;;;;;;;;8.57;28.93;91939.97;6369485;22;19929;-77
2021/12/07 13:58:14;;;;;;;;;;;;;;;8.71;27.94;91930.34;6371831;22;20279;-77
2021/12/07 14:00:40;;;;;;;;;;;;;;;9.37;28.77;91932.78;6373550;22;19991;-77
2021/12/07 14:03:06;;;;;;;;;;;;;;;9.79;29.88;91931.66;6320066;22;19914;-77
2021/12/07 14:05:34;;;;;;;;;;;;;;;10.17;29.03;91930.56;6373766;22;19906;-77
2021/12/07 14:08:01;;;;;;;;;;;;;;;10.45;27.67;91931.28;6346202;22;20247;-77
2021/12/07 14:10:28;;;;;;;;;;;;;;;10.73;28.87;91941.59;6372215;22;19952;-77
2021/12/07 14:12:55;;;;;;;;;;;;;;;10.44;27.76;91944.66;6373537;22;19928;-77
2021/12/07 14:15:22;;;;;;;;;;;;;;;10.77;28.52;91948.53;6372207;22;19910;-77
2021/12/07 14:20:55;;;;;;;;;;;;;;;11.04;29.25;91931.13;6371024;22;19910;-78
2021/12/07 14:26:24;;;;;;;;;;;;;;;11.26;27.27;91938.16;6373032;22;19906;-77
2021/12/07 14:29:08;;;;;;;;;;;;;;;11.34;27.41;91939.25;6373195;22;19909;-77
2021/12/07 14:31:41;;;;;;;;;;;;;;;11.16;28.96;91939.16;6373036;22;20325;-77
2021/12/07 14:34:12;;;;;;;;;;;;;;;11.17;28.57;91942.59;6377512;22;19910;-77
2021/12/07 14:36:39;;;;;;;;;;;;;;;11.16;28.62;91930.53;6403207;22;20360;-77
2021/12/07 14:39:21;;;;;;;;;;;;;;;11.15;27.61;91936.88;6377597;22;20331;-77
2021/12/07 14:41:50;;;;;;;;;;;;;;;11.09;27.09;91935.44;6405206;22;19912;-77
2021/12/07 14:44:20;;;;;;;;;;;;;;;10.54;28.03;91945.19;6375443;22;19908;-77
2021/12/07 14:46:46;;;;;;;;;;;;;;;9.74;29.37;91934.38;6375884;22;19958;-78
2021/12/07 14:49:12;;;;;;;;;;;;;;;9.17;29.38;91939.19;6403480;22;19946;-77
2021/12/07 14:51:39;;;;;;;;;;;;;;;8.66;30.92;91933.03;6403633;22;19921;-77
2021/12/07 14:54:04;;;;;;;;;;;;;;;8.21;31.75;91934.50;6403109;22;19909;-77
2021/12/07 14:56:32;;;;;;;;;;;;;;;7.81;32.92;91944.47;6403105;22;19906;-77
2021/12/07 14:58:59;;;;;;;;;;;;;;;7.37;33.89;91938.53;6404351;22;20005;-77
2021/12/07 15:01:25;;;;;;;;;;;;;;;7.07;34.59;91937.06;6376471;22;19910;-78
2021/12/07 15:03:52;;;;;;;;;;;;;;;6.79;34.83;91943.84;6401432;22;19941;-77
2021/12/07 15:06:18;;;;;;;;;;;;;;;6.56;34.92;91951.34;6401287;22;19916;-77
2021/12/07 15:08:44;;;;;;;;;;;;;;;6.33;35.94;91957.25;6348665;22;19936;-77
2021/12/07 15:14:19;;;;;;;;;;;;;;;5.89;38.01;91958.81;6401432;22;19924;-78
2021/12/07 15:17:03;;;;;;;;;;;;;;;5.74;37.84;91971.91;6375625;22;19916;-77
2021/12/07 15:19:29;;;;;;;;;;;;;;;5.53;38.13;91973.84;6403721;22;19920;-77
2021/12/07 15:21:56;;;;;;;;;;;;;;;5.32;38.67;91973.94;6375735;22;19997;-77
2021/12/07 15:27:24;;;;;;;;;;;;;;;5.03;39.94;91978.19;6403336;22;20329;-77
2021/12/07 15:29:52;;;;;;;;;;;;;;;4.82;40.30;91974.84;6374889;22;19909;-77
2021/12/07 15:35:51;;;;;;;;;;;;;;;4.49;41.14;91969.97;6372113;22;20317;-77
2021/12/07 15:38:18;;;;;;;;;;;;;;;4.33;41.77;91968.44;6374096;22;19906;-75
2021/12/07 15:40:45;;;;;;;;;;;;;;;4.16;41.93;91968.69;6402616;22;19906;-77
2021/12/07 15:43:13;;;;;;;;;;;;;;;4.02;41.53;91970.25;6348485;22;20296;-77
2021/12/07 15:45:41;;;;;;;;;;;;;;;3.95;41.71;91968.69;6375000;22;19949;-77
2021/12/07 15:48:06;;;;;;;;;;;;;;;3.83;42.74;91977.72;6373373;22;19991;-77
2021/12/07 15:50:32;;;;;;;;;;;;;;;3.63;43.23;91981.84;6400364;22;19909;-78
2021/12/07 15:53:03;;;;;;;;;;;;;;;3.50;43.55;91990.06;6372457;22;19914;-78
2021/12/07 15:55:33;;;;;;;;;;;;;;;3.39;43.67;91991.06;6401315;22;19906;-77
2021/12/07 15:58:13;;;;;;;;;;;;;;;3.41;43.58;91996.78;6407967;22;19927;-78
2021/12/07 16:00:41;;;;;;;;;;;;;;;3.38;43.96;91994.69;6376315;22;19912;-76
2021/12/07 16:03:12;;;;;;;;;;;;;;;3.34;44.30;92002.19;6400686;22;19910;-78
2021/12/07 16:05:39;;;;;;;;;;;;;;;3.30;44.16;92003.72;6347037;22;19909;-77
2021/12/07 16:08:09;;;;;;;;;;;;;;;3.23;43.73;92005.75;6373384;22;19929;-77
2021/12/07 16:14:09;;;;;;;;;;;;;;;3.10;42.68;92027.69;6399010;22;19913;-77
2021/12/07 16:16:38;;;;;;;;;;;;;;;3.07;42.77;92021.22;6400994;22;19993;-78
2021/12/07 16:19:22;;;;;;;;;;;;;;;3.05;42.33;92022.50;6373336;22;19901;-77
2021/12/07 16:21:48;;;;;;;;;;;;;;;2.96;43.04;92019.59;6373413;22;20351;-77
2021/12/07 16:24:32;;;;;;;;;;;;;;;2.89;43.90;92019.81;6402509;22;19918;-77
2021/12/07 16:26:58;;;;;;;;;;;;;;;2.84;44.09;92013.84;6347982;22;19937;-77
2021/12/07 16:29:24;;;;;;;;;;;;;;;2.79;44.08;92024.13;6373598;22;19910;-78
2021/12/07 16:31:49;;;;;;;;;;;;;;;2.73;44.65;92025.94;6373824;22;19954;-77
2021/12/07 16:34:17;;;;;;;;;;;;;;;2.65;44.13;92027.16;6345318;22;19914;-77
2021/12/07 16:36:46;;;;;;;;;;;;;;;2.59;44.08;92030.75;6345214;22;20316;-76
2021/12/07 16:39:12;;;;;;;;;;;;;;;2.54;44.13;92027.34;6399006;22;20341;-77
2021/12/07 16:41:38;;;;;;;;;;;;;;;2.53;44.53;92026.56;6396407;22;19910;-77
2021/12/07 16:44:04;;;;;;;;;;;;;;;2.49;44.68;92026.28;6372566;22;20043;-77
2021/12/07 16:46:29;;;;;;;;;;;;;;;2.45;44.92;92019.25;6370214;22;20393;-79
2021/12/07 16:48:55;;;;;;;;;;;;;;;2.39;44.68;92017.69;6399220;22;19939;-77
2021/12/07 16:51:20;;;;;;;;;;;;;;;2.40;44.91;92014.84;6371396;22;20279;-77
2021/12/07 16:53:46;;;;;;;;;;;;;;;2.37;45.15;92023.09;6374683;22;19909;-76
2021/12/07 16:56:13;;;;;;;;;;;;;;;2.30;46.53;92032.84;6372787;22;19909;-78
2021/12/07 16:58:39;;;;;;;;;;;;;;;2.24;45.88;92029.44;6400050;22;20311;-77
2021/12/07 17:01:06;;;;;;;;;;;;;;;2.21;45.28;92032.53;6372768;22;19906;-77
2021/12/07 17:03:32;;;;;;;;;;;;;;;2.19;45.13;92031.22;6398385;22;19910;-76
2021/12/07 17:05:58;;;;;;;;;;;;;;;2.17;46.61;92030.69;6370818;22;19951;-76
2021/12/07 17:08:23;;;;;;;;;;;;;;;2.11;47.16;92035.00;6398472;22;19901;-75
2021/12/07 17:10:49;;;;;;;;;;;;;;;2.06;47.56;92037.56;6369884;22;19970;-76
2021/12/07 17:13:15;;;;;;;;;;;;;;;2.03;48.21;92044.00;6399052;22;19981;-76
2021/12/07 17:15:41;;;;;;;;;;;;;;;1.97;47.20;92044.94;6397326;22;19935;-77
2021/12/07 17:18:07;;;;;;;;;;;;;;;1.95;47.47;92056.56;6398246;22;19928;-76
2021/12/07 17:20:33;;;;;;;;;;;;;;;1.94;47.73;92049.84;6398289;22;19909;-76
2021/12/07 17:22:58;;;;;;;;;;;;;;;1.88;47.85;92052.34;6401584;22;20436;-77
2021/12/07 17:25:24;;;;;;;;;;;;;;;1.85;47.71;92047.69;6399184;22;19935;-77
2021/12/07 17:28:09;;;;;;;;;;;;;;;1.82;48.43;92053.34;6400258;22;19913;-78
2021/12/07 17:30:34;;;;;;;;;;;;;;;1.79;47.66;92043.50;6371858;22;19906;-77
2021/12/07 17:33:00;;;;;;;;;;;;;;;1.76;48.04;92051.72;6373011;22;19905;-76
2021/12/07 17:35:26;;;;;;;;;;;;;;;1.69;48.38;92053.72;6402386;22;19910;-76
2021/12/07 17:37:52;;;;;;;;;;;;;;;1.66;48.18;92057.53;6401830;22;20260;-76
2021/12/07 17:40:19;;;;;;;;;;;;;;;1.63;48.45;92046.94;6347147;22;20278;-76
2021/12/07 17:42:45;;;;;;;;;;;;;;;1.58;48.72;92052.06;6400199;22;19916;-76
2021/12/07 17:45:11;;;;;;;;;;;;;;;1.53;49.15;92050.19;6371013;22;20333;-76
2021/12/07 17:47:37;;;;;;;;;;;;;;;1.48;48.62;92052.69;6399735;22;19927;-75
2021/12/07 17:50:03;;;;;;;;;;;;;;;1.44;48.45;92052.41;6399272;22;19977;-76
2021/12/07 17:52:29;;;;;;;;;;;;;;;1.42;48.71;92054.44;6401094;22;19978;-77
2021/12/07 17:54:54;;;;;;;;;;;;;;;1.38;49.50;92055.94;6400859;22;20290;-77
2021/12/07 17:57:20;;;;;;;;;;;;;;;1.36;49.22;92055.41;6372324;22;19910;-76
2021/12/07 17:59:45;;;;;;;;;;;;;;;1.35;48.89;92064.19;6400169;22;20321;-76
2021/12/07 18:02:11;;;;;;;;;;;;;;;1.33;49.22;92066.22;6345533;22;19909;-76
2021/12/07 18:04:37;;;;;;;;;;;;;;;1.29;49.60;92066.94;6371908;22;19941;-76
2021/12/07 18:07:03;;;;;;;;;;;;;;;1.26;50.20;92073.31;6401242;22;19908;-77
2021/12/07 18:09:29;;;;;;;;;;;;;;;1.21;50.33;92068.09;6371915;22;19906;-77
2021/12/07 18:11:54;;;;;;;;;;;;;;;1.19;50.47;92070.13;6400364;22;20283;-78
2021/12/07 18:14:20;;;;;;;;;;;;;;;1.19;51.20;92067.56;6404601;22;19913;-78
2021/12/07 18:16:49;;;;;;;;;;;;;;;1.17;51.71;92062.66;6400987;22;19988;-77
2021/12/07 18:19:15;;;;;;;;;;;;;;;1.14;51.83;92057.19;6373771;22;20344;-78
2021/12/07 18:21:40;;;;;;;;;;;;;;;1.10;53.38;92056.09;6400938;22;19902;-77
2021/12/07 18:24:06;;;;;;;;;;;;;;;1.06;52.62;92055.00;6402444;22;19958;-77
2021/12/07 18:26:32;;;;;;;;;;;;;;;1.03;52.51;92051.91;6401356;22;19906;-81
2021/12/07 18:28:58;;;;;;;;;;;;;;;1.02;52.21;92052.94;6401505;22;19948;-78
2021/12/07 18:31:24;;;;;;;;;;;;;;;1.00;52.26;92042.06;6401533;22;19997;-78
2021/12/07 18:33:50;;;;;;;;;;;;;;;1.04;51.24;92052.69;6373597;22;19929;-78
2021/12/07 18:36:16;;;;;;;;;;;;;;;1.06;51.38;92055.00;6347847;22;19914;-76
2021/12/07 18:38:45;;;;;;;;;;;;;;;1.04;52.12;92047.53;6373384;22;20424;-78
2021/12/07 18:41:14;;;;;;;;;;;;;;;1.02;52.97;92045.19;6373377;22;19917;-78
2021/12/07 18:43:42;;;;;;;;;;;;;;;1.08;53.57;92040.09;6370677;22;19910;-80
2021/12/07 18:46:07;;;;;;;;;;;;;;;1.10;53.04;92045.78;6399195;22;19990;-77